sensor_id;sensor_type;location;lat;lon;timestamp;temperature;humidity
6758;DHT22;3416;53.074;8.822;2023-09-19T00:00:56;17.00;99.90
6758;DHT22;3416;53.074;8.822;2023-09-19T00:03:25;17.10;99.90
6758;DHT22;3416;53.074;8.822;2023-09-19T00:05:54;17.10;99.90
6758;DHT22;3416;53.074;8.822;2023-09-19T00:08:24;17.20;99.90
6758;DHT22;3416;53.074;8.822;2023-09-19T00:10:51;17.20;99.90
6758;DHT22;3416;53.074;8.822;2023-09-19T00:13:21;17.20;99.90
6758;DHT22;3416;53.074;8.822;2023-09-19T00:15:49;17.20;99.90
6758;DHT22;3416;53.074;8.822;2023-09-19T00:18:17;17.20;99.90
6758;DHT22;3416;53.074;8.822;2023-09-19T00:20:44;17.20;99.90
6758;DHT22;3416;53.074;8.822;2023-09-19T00:23:15;17.20;99.90
6758;DHT22;3416;53.074;8.822;2023-09-19T00:25:42;17.20;99.90
6758;DHT22;3416;53.074;8.822;2023-09-19T00:28:09;17.20;99.90
6758;DHT22;3416;53.074;8.822;2023-09-19T00:30:37;17.20;99.90
6758;DHT22;3416;53.074;8.822;2023-09-19T00:33:04;17.20;99.90
6758;DHT22;3416;53.074;8.822;2023-09-19T00:35:33;17.20;99.90
6758;DHT22;3416;53.074;8.822;2023-09-19T00:38:01;17.20;99.90
6758;DHT22;3416;53.074;8.822;2023-09-19T00:40:30;17.20;99.90
6758;DHT22;3416;53.074;8.822;2023-09-19T00:42:58;17.20;99.90
6758;DHT22;3416;53.074;8.822;2023-09-19T00:45:26;17.30;99.90
6758;DHT22;3416;53.074;8.822;2023-09-19T00:47:54;17.20;99.90
6758;DHT22;3416;53.074;8.822;2023-09-19T00:50:24;17.20;99.90
6758;DHT22;3416;53.074;8.822;2023-09-19T00:52:54;17.20;99.90
6758;DHT22;3416;53.074;8.822;2023-09-19T00:55:30;17.30;99.90
6758;DHT22;3416;53.074;8.822;2023-09-19T00:57:58;17.30;99.90
6758;DHT22;3416;53.074;8.822;2023-09-19T01:00:25;17.30;99.90
6758;DHT22;3416;53.074;8.822;2023-09-19T01:02:52;17.30;99.90
6758;DHT22;3416;53.074;8.822;2023-09-19T01:05:20;17.30;99.90
6758;DHT22;3416;53.074;8.822;2023-09-19T01:07:49;17.20;99.90
6758;DHT22;3416;53.074;8.822;2023-09-19T01:10:19;17.20;99.90
6758;DHT22;3416;53.074;8.822;2023-09-19T01:12:54;17.20;99.90
6758;DHT22;3416;53.074;8.822;2023-09-19T01:15:31;17.20;99.90
6758;DHT22;3416;53.074;8.822;2023-09-19T01:18:04;17.10;99.90
6758;DHT22;3416;53.074;8.822;2023-09-19T01:20:39;17.10;99.90
6758;DHT22;3416;53.074;8.822;2023-09-19T01:23:15;17.10;99.90
6758;DHT22;3416;53.074;8.822;2023-09-19T01:26:11;16.90;99.90
6758;DHT22;3416;53.074;8.822;2023-09-19T01:28:54;16.80;99.90
6758;DHT22;3416;53.074;8.822;2023-09-19T01:31:31;16.80;99.90
6758;DHT22;3416;53.074;8.822;2023-09-19T01:34:02;16.60;99.90
6758;DHT22;3416;53.074;8.822;2023-09-19T01:36:31;16.60;99.90
6758;DHT22;3416;53.074;8.822;2023-09-19T01:39:02;16.50;99.90
6758;DHT22;3416;53.074;8.822;2023-09-19T01:41:45;16.30;99.90
6758;DHT22;3416;53.074;8.822;2023-09-19T01:44:19;16.30;99.90
6758;DHT22;3416;53.074;8.822;2023-09-19T01:46:50;16.20;99.90
6758;DHT22;3416;53.074;8.822;2023-09-19T01:49:24;16.10;99.90
6758;DHT22;3416;53.074;8.822;2023-09-19T01:52:04;16.10;99.90
6758;DHT22;3416;53.074;8.822;2023-09-19T01:54:53;16.00;99.90
6758;DHT22;3416;53.074;8.822;2023-09-19T01:57:28;16.00;99.90
6758;DHT22;3416;53.074;8.822;2023-09-19T02:00:01;15.90;99.90
6758;DHT22;3416;53.074;8.822;2023-09-19T02:02:34;15.90;99.90
6758;DHT22;3416;53.074;8.822;2023-09-19T02:05:03;15.80;99.90
6758;DHT22;3416;53.074;8.822;2023-09-19T02:07:31;15.80;99.90
6758;DHT22;3416;53.074;8.822;2023-09-19T02:09:58;15.80;99.90
6758;DHT22;3416;53.074;8.822;2023-09-19T02:12:25;15.80;99.90
6758;DHT22;3416;53.074;8.822;2023-09-19T02:14:52;15.80;99.90
6758;DHT22;3416;53.074;8.822;2023-09-19T02:17:19;15.70;99.90
6758;DHT22;3416;53.074;8.822;2023-09-19T02:19:48;15.70;99.90
6758;DHT22;3416;53.074;8.822;2023-09-19T02:22:14;15.70;99.90
6758;DHT22;3416;53.074;8.822;2023-09-19T02:24:41;15.70;99.90
6758;DHT22;3416;53.074;8.822;2023-09-19T02:27:11;15.60;99.90
6758;DHT22;3416;53.074;8.822;2023-09-19T02:29:41;15.60;99.90
6758;DHT22;3416;53.074;8.822;2023-09-19T02:32:08;15.50;99.90
6758;DHT22;3416;53.074;8.822;2023-09-19T02:34:36;15.50;99.90
6758;DHT22;3416;53.074;8.822;2023-09-19T02:37:06;15.50;99.90
6758;DHT22;3416;53.074;8.822;2023-09-19T02:39:34;15.50;99.90
6758;DHT22;3416;53.074;8.822;2023-09-19T02:42:01;15.50;99.90
6758;DHT22;3416;53.074;8.822;2023-09-19T02:44:29;15.50;99.90
6758;DHT22;3416;53.074;8.822;2023-09-19T02:46:56;15.50;99.90
6758;DHT22;3416;53.074;8.822;2023-09-19T02:49:24;15.50;99.90
6758;DHT22;3416;53.074;8.822;2023-09-19T02:51:51;15.50;99.90
6758;DHT22;3416;53.074;8.822;2023-09-19T02:54:19;15.50;99.90
6758;DHT22;3416;53.074;8.822;2023-09-19T02:56:47;15.50;99.90
6758;DHT22;3416;53.074;8.822;2023-09-19T02:59:16;15.50;99.90
6758;DHT22;3416;53.074;8.822;2023-09-19T03:01:45;15.40;99.90
6758;DHT22;3416;53.074;8.822;2023-09-19T03:04:13;15.40;99.90
6758;DHT22;3416;53.074;8.822;2023-09-19T03:06:45;15.30;99.90
6758;DHT22;3416;53.074;8.822;2023-09-19T03:09:14;15.20;99.90
6758;DHT22;3416;53.074;8.822;2023-09-19T03:11:43;15.10;99.90
6758;DHT22;3416;53.074;8.822;2023-09-19T03:14:12;15.20;99.90
6758;DHT22;3416;53.074;8.822;2023-09-19T03:16:40;15.10;99.90
6758;DHT22;3416;53.074;8.822;2023-09-19T03:19:07;15.00;99.90
6758;DHT22;3416;53.074;8.822;2023-09-19T03:21:36;15.00;99.90
6758;DHT22;3416;53.074;8.822;2023-09-19T03:24:05;15.00;99.90
6758;DHT22;3416;53.074;8.822;2023-09-19T03:26:32;15.00;99.90
6758;DHT22;3416;53.074;8.822;2023-09-19T03:29:03;15.00;99.90
6758;DHT22;3416;53.074;8.822;2023-09-19T03:31:32;14.90;99.90
6758;DHT22;3416;53.074;8.822;2023-09-19T03:33:59;14.90;99.90
6758;DHT22;3416;53.074;8.822;2023-09-19T03:36:25;14.90;99.90
6758;DHT22;3416;53.074;8.822;2023-09-19T03:38:54;14.80;99.90
6758;DHT22;3416;53.074;8.822;2023-09-19T03:41:21;14.80;99.90
6758;DHT22;3416;53.074;8.822;2023-09-19T03:43:50;14.80;99.90
6758;DHT22;3416;53.074;8.822;2023-09-19T03:46:18;14.80;99.90
6758;DHT22;3416;53.074;8.822;2023-09-19T03:48:45;14.80;99.90
6758;DHT22;3416;53.074;8.822;2023-09-19T03:51:11;14.80;99.90
6758;DHT22;3416;53.074;8.822;2023-09-19T03:53:39;14.80;99.90
6758;DHT22;3416;53.074;8.822;2023-09-19T03:56:06;14.70;99.90
6758;DHT22;3416;53.074;8.822;2023-09-19T03:58:33;14.70;99.90
6758;DHT22;3416;53.074;8.822;2023-09-19T04:01:04;14.70;99.90
6758;DHT22;3416;53.074;8.822;2023-09-19T04:03:35;14.70;99.90
6758;DHT22;3416;53.074;8.822;2023-09-19T04:06:12;14.70;99.90
6758;DHT22;3416;53.074;8.822;2023-09-19T04:08:39;14.70;99.90
6758;DHT22;3416;53.074;8.822;2023-09-19T04:11:06;14.70;99.90
6758;DHT22;3416;53.074;8.822;2023-09-19T04:13:33;14.70;99.90
6758;DHT22;3416;53.074;8.822;2023-09-19T04:16:00;14.70;99.90
6758;DHT22;3416;53.074;8.822;2023-09-19T04:18:27;14.70;99.90
6758;DHT22;3416;53.074;8.822;2023-09-19T04:20:58;14.70;99.90
6758;DHT22;3416;53.074;8.822;2023-09-19T04:23:25;14.80;99.90
6758;DHT22;3416;53.074;8.822;2023-09-19T04:25:53;14.70;99.90
6758;DHT22;3416;53.074;8.822;2023-09-19T04:28:21;14.70;99.90
6758;DHT22;3416;53.074;8.822;2023-09-19T04:30:48;14.60;99.90
6758;DHT22;3416;53.074;8.822;2023-09-19T04:33:16;14.60;99.90
6758;DHT22;3416;53.074;8.822;2023-09-19T04:35:44;14.60;99.90
6758;DHT22;3416;53.074;8.822;2023-09-19T04:38:12;14.60;99.90
6758;DHT22;3416;53.074;8.822;2023-09-19T04:40:40;14.60;99.90
6758;DHT22;3416;53.074;8.822;2023-09-19T04:43:07;14.50;99.90
6758;DHT22;3416;53.074;8.822;2023-09-19T04:45:34;14.50;99.90
6758;DHT22;3416;53.074;8.822;2023-09-19T04:48:01;14.60;99.90
6758;DHT22;3416;53.074;8.822;2023-09-19T04:50:29;14.60;99.90
6758;DHT22;3416;53.074;8.822;2023-09-19T04:52:56;14.60;99.90
6758;DHT22;3416;53.074;8.822;2023-09-19T04:55:25;14.50;99.90
6758;DHT22;3416;53.074;8.822;2023-09-19T04:57:52;14.50;99.90
6758;DHT22;3416;53.074;8.822;2023-09-19T05:00:20;14.50;99.90
6758;DHT22;3416;53.074;8.822;2023-09-19T05:02:50;14.50;99.90
6758;DHT22;3416;53.074;8.822;2023-09-19T05:05:18;14.50;99.90
6758;DHT22;3416;53.074;8.822;2023-09-19T05:07:45;14.60;99.90
6758;DHT22;3416;53.074;8.822;2023-09-19T05:10:13;14.60;99.90
6758;DHT22;3416;53.074;8.822;2023-09-19T05:12:41;14.60;99.90
6758;DHT22;3416;53.074;8.822;2023-09-19T05:15:11;14.60;99.90
6758;DHT22;3416;53.074;8.822;2023-09-19T05:17:38;14.60;99.90
6758;DHT22;3416;53.074;8.822;2023-09-19T05:20:06;14.70;99.90
6758;DHT22;3416;53.074;8.822;2023-09-19T05:22:57;14.60;99.90
6758;DHT22;3416;53.074;8.822;2023-09-19T05:25:27;14.70;99.90
6758;DHT22;3416;53.074;8.822;2023-09-19T05:27:57;14.80;99.90
6758;DHT22;3416;53.074;8.822;2023-09-19T05:30:24;14.80;99.90
6758;DHT22;3416;53.074;8.822;2023-09-19T05:32:54;14.90;99.90
6758;DHT22;3416;53.074;8.822;2023-09-19T05:35:21;15.00;99.90
6758;DHT22;3416;53.074;8.822;2023-09-19T05:37:50;15.10;99.90
6758;DHT22;3416;53.074;8.822;2023-09-19T05:40:17;15.20;99.90
6758;DHT22;3416;53.074;8.822;2023-09-19T05:42:46;15.30;99.90
6758;DHT22;3416;53.074;8.822;2023-09-19T05:45:14;15.30;99.90
6758;DHT22;3416;53.074;8.822;2023-09-19T05:47:47;15.50;99.90
6758;DHT22;3416;53.074;8.822;2023-09-19T05:50:15;15.50;99.90
6758;DHT22;3416;53.074;8.822;2023-09-19T05:52:47;15.60;99.90
6758;DHT22;3416;53.074;8.822;2023-09-19T05:55:17;15.60;99.90
6758;DHT22;3416;53.074;8.822;2023-09-19T05:57:49;15.60;99.90
6758;DHT22;3416;53.074;8.822;2023-09-19T06:00:18;15.70;99.90
6758;DHT22;3416;53.074;8.822;2023-09-19T06:02:50;15.80;99.90
6758;DHT22;3416;53.074;8.822;2023-09-19T06:05:17;16.00;99.90
6758;DHT22;3416;53.074;8.822;2023-09-19T06:07:46;16.30;99.90
6758;DHT22;3416;53.074;8.822;2023-09-19T06:10:13;16.50;99.90
6758;DHT22;3416;53.074;8.822;2023-09-19T06:12:41;16.60;99.90
6758;DHT22;3416;53.074;8.822;2023-09-19T06:15:10;16.50;99.90
6758;DHT22;3416;53.074;8.822;2023-09-19T06:21:00;16.20;99.90
6758;DHT22;3416;53.074;8.822;2023-09-19T06:23:56;16.20;99.90
6758;DHT22;3416;53.074;8.822;2023-09-19T06:26:29;16.00;99.90
6758;DHT22;3416;53.074;8.822;2023-09-19T06:28:56;16.00;99.90
6758;DHT22;3416;53.074;8.822;2023-09-19T06:31:26;16.00;99.90
6758;DHT22;3416;53.074;8.822;2023-09-19T06:33:53;16.10;99.90
6758;DHT22;3416;53.074;8.822;2023-09-19T06:36:25;16.10;99.90
6758;DHT22;3416;53.074;8.822;2023-09-19T06:38:52;16.00;99.90
6758;DHT22;3416;53.074;8.822;2023-09-19T06:41:24;16.00;99.90
6758;DHT22;3416;53.074;8.822;2023-09-19T06:43:51;16.00;99.90
6758;DHT22;3416;53.074;8.822;2023-09-19T06:46:19;16.10;99.90
6758;DHT22;3416;53.074;8.822;2023-09-19T06:48:50;16.10;99.90
6758;DHT22;3416;53.074;8.822;2023-09-19T06:51:27;16.00;99.90
6758;DHT22;3416;53.074;8.822;2023-09-19T06:53:55;16.20;99.90
6758;DHT22;3416;53.074;8.822;2023-09-19T06:56:24;16.20;99.90
6758;DHT22;3416;53.074;8.822;2023-09-19T06:58:51;16.30;99.90
6758;DHT22;3416;53.074;8.822;2023-09-19T07:01:19;16.50;99.90
6758;DHT22;3416;53.074;8.822;2023-09-19T07:03:45;16.50;99.90
6758;DHT22;3416;53.074;8.822;2023-09-19T07:06:12;16.60;99.90
6758;DHT22;3416;53.074;8.822;2023-09-19T07:08:41;16.70;99.90
6758;DHT22;3416;53.074;8.822;2023-09-19T07:11:35;16.60;99.90
6758;DHT22;3416;53.074;8.822;2023-09-19T07:14:02;16.80;99.90
6758;DHT22;3416;53.074;8.822;2023-09-19T07:16:39;16.80;99.90
6758;DHT22;3416;53.074;8.822;2023-09-19T07:19:08;16.90;99.90
6758;DHT22;3416;53.074;8.822;2023-09-19T07:21:37;16.70;99.90
6758;DHT22;3416;53.074;8.822;2023-09-19T07:24:06;17.50;99.90
6758;DHT22;3416;53.074;8.822;2023-09-19T07:26:34;18.80;99.90
6758;DHT22;3416;53.074;8.822;2023-09-19T07:29:01;19.50;99.90
6758;DHT22;3416;53.074;8.822;2023-09-19T07:31:29;19.60;99.90
6758;DHT22;3416;53.074;8.822;2023-09-19T07:33:56;19.80;99.90
6758;DHT22;3416;53.074;8.822;2023-09-19T07:36:34;19.60;99.90
6758;DHT22;3416;53.074;8.822;2023-09-19T07:39:03;19.60;99.90
6758;DHT22;3416;53.074;8.822;2023-09-19T07:41:34;19.20;99.90
6758;DHT22;3416;53.074;8.822;2023-09-19T07:44:01;19.60;99.90
6758;DHT22;3416;53.074;8.822;2023-09-19T07:46:28;20.30;99.90
6758;DHT22;3416;53.074;8.822;2023-09-19T07:48:57;20.80;99.90
6758;DHT22;3416;53.074;8.822;2023-09-19T07:51:25;21.60;99.90
6758;DHT22;3416;53.074;8.822;2023-09-19T07:53:52;21.60;99.90
6758;DHT22;3416;53.074;8.822;2023-09-19T07:56:20;21.50;99.90
6758;DHT22;3416;53.074;8.822;2023-09-19T07:58:51;21.40;99.90
6758;DHT22;3416;53.074;8.822;2023-09-19T08:01:18;21.50;99.90
6758;DHT22;3416;53.074;8.822;2023-09-19T08:03:55;21.60;99.90
6758;DHT22;3416;53.074;8.822;2023-09-19T08:06:22;22.30;99.90
6758;DHT22;3416;53.074;8.822;2023-09-19T08:08:51;22.70;98.10
6758;DHT22;3416;53.074;8.822;2023-09-19T08:11:20;22.40;96.20
6758;DHT22;3416;53.074;8.822;2023-09-19T08:13:51;21.80;96.70
6758;DHT22;3416;53.074;8.822;2023-09-19T08:16:18;21.60;97.60
6758;DHT22;3416;53.074;8.822;2023-09-19T08:18:49;21.40;98.90
6758;DHT22;3416;53.074;8.822;2023-09-19T08:21:18;21.20;98.60
6758;DHT22;3416;53.074;8.822;2023-09-19T08:23:45;21.20;99.60
6758;DHT22;3416;53.074;8.822;2023-09-19T08:26:12;21.50;99.00
6758;DHT22;3416;53.074;8.822;2023-09-19T08:28:39;21.80;98.60
6758;DHT22;3416;53.074;8.822;2023-09-19T08:31:08;21.80;97.60
6758;DHT22;3416;53.074;8.822;2023-09-19T08:33:37;21.40;98.10
6758;DHT22;3416;53.074;8.822;2023-09-19T08:36:04;21.20;98.90
6758;DHT22;3416;53.074;8.822;2023-09-19T08:38:31;21.20;98.70
6758;DHT22;3416;53.074;8.822;2023-09-19T08:40:59;21.10;98.60
6758;DHT22;3416;53.074;8.822;2023-09-19T08:43:26;20.70;99.70
6758;DHT22;3416;53.074;8.822;2023-09-19T08:45:58;21.00;99.90
6758;DHT22;3416;53.074;8.822;2023-09-19T08:48:34;21.50;98.90
6758;DHT22;3416;53.074;8.822;2023-09-19T08:51:07;22.30;97.00
6758;DHT22;3416;53.074;8.822;2023-09-19T08:53:41;22.20;95.90
6758;DHT22;3416;53.074;8.822;2023-09-19T08:56:12;22.10;95.70
6758;DHT22;3416;53.074;8.822;2023-09-19T08:58:48;22.30;96.00
6758;DHT22;3416;53.074;8.822;2023-09-19T09:01:17;22.70;95.80
6758;DHT22;3416;53.074;8.822;2023-09-19T09:03:51;22.50;95.10
6758;DHT22;3416;53.074;8.822;2023-09-19T09:06:21;22.00;95.30
6758;DHT22;3416;53.074;8.822;2023-09-19T09:08:52;21.80;95.50
6758;DHT22;3416;53.074;8.822;2023-09-19T09:11:19;21.50;95.90
6758;DHT22;3416;53.074;8.822;2023-09-19T09:13:47;21.90;96.40
6758;DHT22;3416;53.074;8.822;2023-09-19T09:16:15;21.90;96.10
6758;DHT22;3416;53.074;8.822;2023-09-19T09:18:44;21.90;95.70
6758;DHT22;3416;53.074;8.822;2023-09-19T09:21:13;21.60;95.90
6758;DHT22;3416;53.074;8.822;2023-09-19T09:23:41;21.60;95.90
6758;DHT22;3416;53.074;8.822;2023-09-19T09:26:08;21.90;95.70
6758;DHT22;3416;53.074;8.822;2023-09-19T09:28:35;22.70;95.20
6758;DHT22;3416;53.074;8.822;2023-09-19T09:31:04;22.90;94.40
6758;DHT22;3416;53.074;8.822;2023-09-19T09:33:35;22.80;93.70
6758;DHT22;3416;53.074;8.822;2023-09-19T09:36:03;22.80;94.30
6758;DHT22;3416;53.074;8.822;2023-09-19T09:38:45;22.50;94.00
6758;DHT22;3416;53.074;8.822;2023-09-19T09:41:15;22.60;93.70
6758;DHT22;3416;53.074;8.822;2023-09-19T09:43:53;22.60;92.70
6758;DHT22;3416;53.074;8.822;2023-09-19T09:46:21;22.40;93.00
6758;DHT22;3416;53.074;8.822;2023-09-19T09:49:07;22.40;92.60
6758;DHT22;3416;53.074;8.822;2023-09-19T09:52:00;22.20;93.30
6758;DHT22;3416;53.074;8.822;2023-09-19T09:57:42;21.50;93.60
6758;DHT22;3416;53.074;8.822;2023-09-19T10:00:10;20.20;96.00
6758;DHT22;3416;53.074;8.822;2023-09-19T10:02:46;20.00;97.50
6758;DHT22;3416;53.074;8.822;2023-09-19T10:05:14;20.20;97.70
6758;DHT22;3416;53.074;8.822;2023-09-19T10:07:47;20.40;98.30
6758;DHT22;3416;53.074;8.822;2023-09-19T10:10:15;20.70;97.90
6758;DHT22;3416;53.074;8.822;2023-09-19T10:13:05;20.50;97.00
6758;DHT22;3416;53.074;8.822;2023-09-19T10:15:34;20.20;97.30
6758;DHT22;3416;53.074;8.822;2023-09-19T10:18:04;20.00;98.40
6758;DHT22;3416;53.074;8.822;2023-09-19T10:20:34;19.80;98.10
6758;DHT22;3416;53.074;8.822;2023-09-19T10:23:06;20.00;98.10
6758;DHT22;3416;53.074;8.822;2023-09-19T10:25:37;19.90;98.10
6758;DHT22;3416;53.074;8.822;2023-09-19T10:28:08;19.90;98.70
6758;DHT22;3416;53.074;8.822;2023-09-19T10:30:38;19.80;98.50
6758;DHT22;3416;53.074;8.822;2023-09-19T10:33:11;19.80;99.30
6758;DHT22;3416;53.074;8.822;2023-09-19T10:35:40;19.80;99.50
6758;DHT22;3416;53.074;8.822;2023-09-19T10:38:10;19.80;99.10
6758;DHT22;3416;53.074;8.822;2023-09-19T10:40:39;19.80;99.30
6758;DHT22;3416;53.074;8.822;2023-09-19T10:43:13;19.80;99.00
6758;DHT22;3416;53.074;8.822;2023-09-19T10:45:44;19.70;98.10
6758;DHT22;3416;53.074;8.822;2023-09-19T10:48:12;19.90;98.50
6758;DHT22;3416;53.074;8.822;2023-09-19T10:50:44;20.00;98.20
6758;DHT22;3416;53.074;8.822;2023-09-19T10:53:13;20.20;97.70
6758;DHT22;3416;53.074;8.822;2023-09-19T10:55:47;20.20;97.60
6758;DHT22;3416;53.074;8.822;2023-09-19T10:58:26;20.40;97.40
6758;DHT22;3416;53.074;8.822;2023-09-19T11:00:55;20.30;97.10
6758;DHT22;3416;53.074;8.822;2023-09-19T11:03:23;20.30;97.70
6758;DHT22;3416;53.074;8.822;2023-09-19T11:06:03;20.40;97.40
6758;DHT22;3416;53.074;8.822;2023-09-19T11:08:33;20.40;96.90
6758;DHT22;3416;53.074;8.822;2023-09-19T11:11:39;20.50;96.50
6758;DHT22;3416;53.074;8.822;2023-09-19T11:17:44;20.60;96.20
6758;DHT22;3416;53.074;8.822;2023-09-19T11:20:23;20.50;96.40
6758;DHT22;3416;53.074;8.822;2023-09-19T11:23:18;20.50;96.40
6758;DHT22;3416;53.074;8.822;2023-09-19T11:25:49;20.50;96.20
6758;DHT22;3416;53.074;8.822;2023-09-19T11:28:32;20.60;96.40
6758;DHT22;3416;53.074;8.822;2023-09-19T11:40:46;21.20;95.20
6758;DHT22;3416;53.074;8.822;2023-09-19T11:43:32;21.00;94.60
6758;DHT22;3416;53.074;8.822;2023-09-19T11:46:10;20.90;95.40
6758;DHT22;3416;53.074;8.822;2023-09-19T11:48:41;21.10;95.30
6758;DHT22;3416;53.074;8.822;2023-09-19T11:51:17;21.00;94.80
6758;DHT22;3416;53.074;8.822;2023-09-19T11:53:48;21.10;93.90
6758;DHT22;3416;53.074;8.822;2023-09-19T11:56:17;20.80;94.00
6758;DHT22;3416;53.074;8.822;2023-09-19T11:58:44;20.60;94.40
6758;DHT22;3416;53.074;8.822;2023-09-19T12:01:22;20.60;94.70
6758;DHT22;3416;53.074;8.822;2023-09-19T12:03:53;20.60;94.70
6758;DHT22;3416;53.074;8.822;2023-09-19T12:06:20;20.50;94.60
6758;DHT22;3416;53.074;8.822;2023-09-19T12:08:48;20.70;94.80
6758;DHT22;3416;53.074;8.822;2023-09-19T12:11:17;20.70;94.90
6758;DHT22;3416;53.074;8.822;2023-09-19T12:13:46;20.80;95.10
6758;DHT22;3416;53.074;8.822;2023-09-19T12:16:17;21.00;95.00
6758;DHT22;3416;53.074;8.822;2023-09-19T12:18:47;20.90;94.20
6758;DHT22;3416;53.074;8.822;2023-09-19T12:21:23;21.00;94.20
6758;DHT22;3416;53.074;8.822;2023-09-19T12:23:59;21.00;94.30
6758;DHT22;3416;53.074;8.822;2023-09-19T12:26:27;20.90;93.70
6758;DHT22;3416;53.074;8.822;2023-09-19T12:28:55;20.70;93.70
6758;DHT22;3416;53.074;8.822;2023-09-19T12:31:24;20.50;94.20
6758;DHT22;3416;53.074;8.822;2023-09-19T12:33:55;20.60;94.40
6758;DHT22;3416;53.074;8.822;2023-09-19T12:36:23;20.70;94.50
6758;DHT22;3416;53.074;8.822;2023-09-19T12:38:55;20.70;94.40
6758;DHT22;3416;53.074;8.822;2023-09-19T12:41:24;20.80;94.70
6758;DHT22;3416;53.074;8.822;2023-09-19T12:43:52;20.80;94.50
6758;DHT22;3416;53.074;8.822;2023-09-19T12:46:20;20.90;94.80
6758;DHT22;3416;53.074;8.822;2023-09-19T12:49:16;21.00;94.00
6758;DHT22;3416;53.074;8.822;2023-09-19T12:51:45;21.10;94.00
6758;DHT22;3416;53.074;8.822;2023-09-19T12:54:12;21.20;94.20
6758;DHT22;3416;53.074;8.822;2023-09-19T12:56:42;21.00;94.10
6758;DHT22;3416;53.074;8.822;2023-09-19T12:59:12;21.00;94.20
6758;DHT22;3416;53.074;8.822;2023-09-19T13:01:39;21.00;94.00
6758;DHT22;3416;53.074;8.822;2023-09-19T13:04:13;20.90;94.00
6758;DHT22;3416;53.074;8.822;2023-09-19T13:06:44;20.80;94.30
6758;DHT22;3416;53.074;8.822;2023-09-19T13:09:11;20.70;94.40
6758;DHT22;3416;53.074;8.822;2023-09-19T13:11:40;20.70;95.00
6758;DHT22;3416;53.074;8.822;2023-09-19T13:14:21;20.70;95.00
6758;DHT22;3416;53.074;8.822;2023-09-19T13:16:56;20.80;95.30
6758;DHT22;3416;53.074;8.822;2023-09-19T13:19:42;20.80;95.00
6758;DHT22;3416;53.074;8.822;2023-09-19T13:22:36;20.80;95.40
6758;DHT22;3416;53.074;8.822;2023-09-19T13:25:05;20.60;95.20
6758;DHT22;3416;53.074;8.822;2023-09-19T13:27:33;20.70;95.70
6758;DHT22;3416;53.074;8.822;2023-09-19T13:30:01;20.90;95.60
6758;DHT22;3416;53.074;8.822;2023-09-19T13:32:32;21.10;95.20
6758;DHT22;3416;53.074;8.822;2023-09-19T13:35:01;21.20;94.90
6758;DHT22;3416;53.074;8.822;2023-09-19T13:37:28;21.20;94.80
6758;DHT22;3416;53.074;8.822;2023-09-19T13:39:55;21.30;95.10
6758;DHT22;3416;53.074;8.822;2023-09-19T13:42:24;21.30;95.00
6758;DHT22;3416;53.074;8.822;2023-09-19T13:44:55;21.10;95.00
6758;DHT22;3416;53.074;8.822;2023-09-19T13:47:22;20.90;95.20
6758;DHT22;3416;53.074;8.822;2023-09-19T13:49:53;20.90;95.30
6758;DHT22;3416;53.074;8.822;2023-09-19T13:52:21;20.90;95.50
6758;DHT22;3416;53.074;8.822;2023-09-19T13:54:50;20.90;95.30
6758;DHT22;3416;53.074;8.822;2023-09-19T13:57:18;20.90;95.40
6758;DHT22;3416;53.074;8.822;2023-09-19T13:59:45;20.90;95.60
6758;DHT22;3416;53.074;8.822;2023-09-19T14:02:13;20.90;95.50
6758;DHT22;3416;53.074;8.822;2023-09-19T14:04:40;21.00;95.60
6758;DHT22;3416;53.074;8.822;2023-09-19T14:07:07;21.00;95.70
6758;DHT22;3416;53.074;8.822;2023-09-19T14:09:36;21.00;95.70
6758;DHT22;3416;53.074;8.822;2023-09-19T14:12:03;21.10;95.40
6758;DHT22;3416;53.074;8.822;2023-09-19T14:14:30;21.10;95.10
6758;DHT22;3416;53.074;8.822;2023-09-19T14:16:57;21.10;95.40
6758;DHT22;3416;53.074;8.822;2023-09-19T14:19:26;21.20;95.50
6758;DHT22;3416;53.074;8.822;2023-09-19T14:21:53;21.20;95.10
6758;DHT22;3416;53.074;8.822;2023-09-19T14:24:22;21.00;95.40
6758;DHT22;3416;53.074;8.822;2023-09-19T14:26:50;21.00;95.70
6758;DHT22;3416;53.074;8.822;2023-09-19T14:29:20;21.00;95.90
6758;DHT22;3416;53.074;8.822;2023-09-19T14:31:47;21.00;96.00
6758;DHT22;3416;53.074;8.822;2023-09-19T14:34:14;21.00;96.00
6758;DHT22;3416;53.074;8.822;2023-09-19T14:36:42;20.90;96.30
6758;DHT22;3416;53.074;8.822;2023-09-19T14:39:09;20.80;96.50
6758;DHT22;3416;53.074;8.822;2023-09-19T14:41:36;20.80;96.50
6758;DHT22;3416;53.074;8.822;2023-09-19T14:44:05;20.80;96.60
6758;DHT22;3416;53.074;8.822;2023-09-19T14:46:32;20.70;96.40
6758;DHT22;3416;53.074;8.822;2023-09-19T14:48:59;20.60;96.60
6758;DHT22;3416;53.074;8.822;2023-09-19T14:51:29;20.70;96.70
6758;DHT22;3416;53.074;8.822;2023-09-19T14:53:59;20.70;96.20
6758;DHT22;3416;53.074;8.822;2023-09-19T14:56:28;20.70;96.30
6758;DHT22;3416;53.074;8.822;2023-09-19T14:58:56;20.60;96.60
6758;DHT22;3416;53.074;8.822;2023-09-19T15:01:27;20.60;96.50
6758;DHT22;3416;53.074;8.822;2023-09-19T15:03:54;20.60;96.70
6758;DHT22;3416;53.074;8.822;2023-09-19T15:06:21;20.50;96.70
6758;DHT22;3416;53.074;8.822;2023-09-19T15:08:48;20.50;97.00
6758;DHT22;3416;53.074;8.822;2023-09-19T15:11:16;20.50;97.00
6758;DHT22;3416;53.074;8.822;2023-09-19T15:13:44;20.50;97.10
6758;DHT22;3416;53.074;8.822;2023-09-19T15:16:11;20.40;97.20
6758;DHT22;3416;53.074;8.822;2023-09-19T15:18:42;20.40;97.30
6758;DHT22;3416;53.074;8.822;2023-09-19T15:21:11;20.40;97.50
6758;DHT22;3416;53.074;8.822;2023-09-19T15:23:40;20.40;97.60
6758;DHT22;3416;53.074;8.822;2023-09-19T15:26:09;20.40;97.60
6758;DHT22;3416;53.074;8.822;2023-09-19T15:28:37;20.30;97.80
6758;DHT22;3416;53.074;8.822;2023-09-19T15:31:05;20.20;98.00
6758;DHT22;3416;53.074;8.822;2023-09-19T15:33:33;20.10;98.10
6758;DHT22;3416;53.074;8.822;2023-09-19T15:36:03;20.10;98.30
6758;DHT22;3416;53.074;8.822;2023-09-19T15:38:31;20.10;98.60
6758;DHT22;3416;53.074;8.822;2023-09-19T15:40:58;20.20;98.70
6758;DHT22;3416;53.074;8.822;2023-09-19T15:43:25;20.10;98.40
6758;DHT22;3416;53.074;8.822;2023-09-19T15:45:53;20.10;98.50
6758;DHT22;3416;53.074;8.822;2023-09-19T15:48:20;20.10;98.40
6758;DHT22;3416;53.074;8.822;2023-09-19T15:50:49;20.10;98.30
6758;DHT22;3416;53.074;8.822;2023-09-19T15:53:17;20.00;98.60
6758;DHT22;3416;53.074;8.822;2023-09-19T15:55:44;20.00;98.80
6758;DHT22;3416;53.074;8.822;2023-09-19T15:58:15;19.90;98.90
6758;DHT22;3416;53.074;8.822;2023-09-19T16:00:43;19.90;99.00
6758;DHT22;3416;53.074;8.822;2023-09-19T16:03:14;19.90;99.10
6758;DHT22;3416;53.074;8.822;2023-09-19T16:05:42;19.80;99.40
6758;DHT22;3416;53.074;8.822;2023-09-19T16:08:10;19.80;99.40
6758;DHT22;3416;53.074;8.822;2023-09-19T16:10:39;19.80;99.10
6758;DHT22;3416;53.074;8.822;2023-09-19T16:13:06;19.80;99.20
6758;DHT22;3416;53.074;8.822;2023-09-19T16:15:34;19.80;99.30
6758;DHT22;3416;53.074;8.822;2023-09-19T16:18:06;19.70;99.20
6758;DHT22;3416;53.074;8.822;2023-09-19T16:20:35;19.80;99.30
6758;DHT22;3416;53.074;8.822;2023-09-19T16:23:04;19.80;99.20
6758;DHT22;3416;53.074;8.822;2023-09-19T16:25:32;19.70;99.10
6758;DHT22;3416;53.074;8.822;2023-09-19T16:28:02;19.70;99.30
6758;DHT22;3416;53.074;8.822;2023-09-19T16:30:32;19.70;99.30
6758;DHT22;3416;53.074;8.822;2023-09-19T16:32:59;19.70;99.00
6758;DHT22;3416;53.074;8.822;2023-09-19T16:35:27;19.70;99.20
6758;DHT22;3416;53.074;8.822;2023-09-19T16:37:54;19.80;99.40
6758;DHT22;3416;53.074;8.822;2023-09-19T16:40:22;19.70;99.20